sensor_id;sensor_type;location;lat;lon;timestamp;temperature;humidity
74661;SHT31;63191;39.566;2.654;2023-05-10T00:01:17;19.83;75.79
74661;SHT31;63191;39.566;2.654;2023-05-10T00:03:47;19.78;75.19
74661;SHT31;63191;39.566;2.654;2023-05-10T00:06:13;19.72;74.60
74661;SHT31;63191;39.566;2.654;2023-05-10T00:08:38;19.67;74.03
74661;SHT31;63191;39.566;2.654;2023-05-10T00:11:04;19.61;73.62
74661;SHT31;63191;39.566;2.654;2023-05-10T00:13:31;19.55;73.42
74661;SHT31;63191;39.566;2.654;2023-05-10T00:15:57;19.50;73.19
74661;SHT31;63191;39.566;2.654;2023-05-10T00:18:23;19.43;72.79
74661;SHT31;63191;39.566;2.654;2023-05-10T00:20:48;19.37;72.74
74661;SHT31;63191;39.566;2.654;2023-05-10T00:23:14;19.33;72.89
74661;SHT31;63191;39.566;2.654;2023-05-10T00:25:40;19.29;73.12
74661;SHT31;63191;39.566;2.654;2023-05-10T00:28:06;19.26;73.37
74661;SHT31;63191;39.566;2.654;2023-05-10T00:30:31;19.23;73.60
74661;SHT31;63191;39.566;2.654;2023-05-10T00:32:57;19.20;73.89
74661;SHT31;63191;39.566;2.654;2023-05-10T00:35:23;19.16;74.10
74661;SHT31;63191;39.566;2.654;2023-05-10T00:37:49;19.15;74.28
74661;SHT31;63191;39.566;2.654;2023-05-10T00:40:15;19.15;74.44
74661;SHT31;63191;39.566;2.654;2023-05-10T00:42:41;19.14;74.60
74661;SHT31;63191;39.566;2.654;2023-05-10T00:45:07;19.11;74.74
74661;SHT31;63191;39.566;2.654;2023-05-10T00:47:34;19.08;74.85
74661;SHT31;63191;39.566;2.654;2023-05-10T00:50:00;19.07;74.96
74661;SHT31;63191;39.566;2.654;2023-05-10T00:52:26;19.06;75.10
74661;SHT31;63191;39.566;2.654;2023-05-10T00:54:53;19.04;75.19
74661;SHT31;63191;39.566;2.654;2023-05-10T00:57:21;19.01;75.28
74661;SHT31;63191;39.566;2.654;2023-05-10T00:59:49;19.00;75.42
74661;SHT31;63191;39.566;2.654;2023-05-10T01:02:16;19.00;75.52
74661;SHT31;63191;39.566;2.654;2023-05-10T01:04:41;19.00;75.62
74661;SHT31;63191;39.566;2.654;2023-05-10T01:07:08;19.00;75.68
74661;SHT31;63191;39.566;2.654;2023-05-10T01:09:34;19.00;75.68
74661;SHT31;63191;39.566;2.654;2023-05-10T01:12:00;18.99;75.72
74661;SHT31;63191;39.566;2.654;2023-05-10T01:14:27;19.01;75.71
74661;SHT31;63191;39.566;2.654;2023-05-10T01:16:54;19.03;75.68
74661;SHT31;63191;39.566;2.654;2023-05-10T01:19:24;19.06;75.61
74661;SHT31;63191;39.566;2.654;2023-05-10T01:21:58;19.07;75.50
74661;SHT31;63191;39.566;2.654;2023-05-10T01:33:01;19.18;75.10
74661;SHT31;63191;39.566;2.654;2023-05-10T01:35:42;19.18;75.03
74661;SHT31;63191;39.566;2.654;2023-05-10T01:38:20;19.19;74.93
74661;SHT31;63191;39.566;2.654;2023-05-10T01:46:28;19.23;74.55
74661;SHT31;63191;39.566;2.654;2023-05-10T01:49:02;19.24;74.40
74661;SHT31;63191;39.566;2.654;2023-05-10T01:52:06;19.24;74.28
74661;SHT31;63191;39.566;2.654;2023-05-10T01:54:37;19.21;74.16
74661;SHT31;63191;39.566;2.654;2023-05-10T01:57:07;19.19;74.11
74661;SHT31;63191;39.566;2.654;2023-05-10T01:59:37;19.17;74.09
74661;SHT31;63191;39.566;2.654;2023-05-10T02:02:06;19.15;74.00
74661;SHT31;63191;39.566;2.654;2023-05-10T02:04:33;19.13;73.91
74661;SHT31;63191;39.566;2.654;2023-05-10T02:07:03;19.12;73.90
74661;SHT31;63191;39.566;2.654;2023-05-10T02:09:30;19.11;73.86
74661;SHT31;63191;39.566;2.654;2023-05-10T02:11:59;19.09;73.81
74661;SHT31;63191;39.566;2.654;2023-05-10T02:14:27;19.07;73.72
74661;SHT31;63191;39.566;2.654;2023-05-10T02:16:58;19.06;73.64
74661;SHT31;63191;39.566;2.654;2023-05-10T02:19:25;19.03;73.60
74661;SHT31;63191;39.566;2.654;2023-05-10T02:21:54;19.00;73.59
74661;SHT31;63191;39.566;2.654;2023-05-10T02:24:21;18.99;73.52
74661;SHT31;63191;39.566;2.654;2023-05-10T02:26:49;18.99;73.45
74661;SHT31;63191;39.566;2.654;2023-05-10T02:29:19;19.01;73.36
74661;SHT31;63191;39.566;2.654;2023-05-10T02:31:48;19.03;73.25
74661;SHT31;63191;39.566;2.654;2023-05-10T02:34:16;19.04;73.16
74661;SHT31;63191;39.566;2.654;2023-05-10T02:36:42;19.03;73.09
74661;SHT31;63191;39.566;2.654;2023-05-10T02:39:09;19.03;73.03
74661;SHT31;63191;39.566;2.654;2023-05-10T02:41:39;19.02;72.98
74661;SHT31;63191;39.566;2.654;2023-05-10T02:44:06;18.99;72.86
74661;SHT31;63191;39.566;2.654;2023-05-10T02:46:34;18.96;72.80
74661;SHT31;63191;39.566;2.654;2023-05-10T02:49:02;18.94;72.73
74661;SHT31;63191;39.566;2.654;2023-05-10T02:51:28;18.94;72.67
74661;SHT31;63191;39.566;2.654;2023-05-10T02:54:01;18.93;72.63
74661;SHT31;63191;39.566;2.654;2023-05-10T02:56:40;18.90;72.57
74661;SHT31;63191;39.566;2.654;2023-05-10T02:59:12;18.87;72.51
74661;SHT31;63191;39.566;2.654;2023-05-10T03:01:38;18.84;72.51
74661;SHT31;63191;39.566;2.654;2023-05-10T03:04:04;18.82;72.50
74661;SHT31;63191;39.566;2.654;2023-05-10T03:06:31;18.78;72.50
74661;SHT31;63191;39.566;2.654;2023-05-10T03:08:56;18.76;72.52
74661;SHT31;63191;39.566;2.654;2023-05-10T03:11:25;18.74;72.59
74661;SHT31;63191;39.566;2.654;2023-05-10T03:14:21;18.74;72.60
74661;SHT31;63191;39.566;2.654;2023-05-10T03:20:03;18.77;72.54
74661;SHT31;63191;39.566;2.654;2023-05-10T03:22:36;18.76;72.44
74661;SHT31;63191;39.566;2.654;2023-05-10T03:25:12;18.76;72.41
74661;SHT31;63191;39.566;2.654;2023-05-10T03:27:41;18.75;72.40
74661;SHT31;63191;39.566;2.654;2023-05-10T03:30:10;18.73;72.35
74661;SHT31;63191;39.566;2.654;2023-05-10T03:32:37;18.73;72.27
74661;SHT31;63191;39.566;2.654;2023-05-10T03:35:10;18.72;72.21
74661;SHT31;63191;39.566;2.654;2023-05-10T03:37:40;18.70;72.18
74661;SHT31;63191;39.566;2.654;2023-05-10T03:40:06;18.69;72.06
74661;SHT31;63191;39.566;2.654;2023-05-10T03:42:33;18.69;71.92
74661;SHT31;63191;39.566;2.654;2023-05-10T03:44:58;18.69;71.77
74661;SHT31;63191;39.566;2.654;2023-05-10T03:47:24;18.71;71.63
74661;SHT31;63191;39.566;2.654;2023-05-10T03:49:50;18.72;71.44
74661;SHT31;63191;39.566;2.654;2023-05-10T03:52:15;18.73;71.36
74661;SHT31;63191;39.566;2.654;2023-05-10T03:54:41;18.74;71.21
74661;SHT31;63191;39.566;2.654;2023-05-10T03:57:07;18.74;71.19
74661;SHT31;63191;39.566;2.654;2023-05-10T03:59:32;18.75;71.13
74661;SHT31;63191;39.566;2.654;2023-05-10T04:01:58;18.75;71.08
74661;SHT31;63191;39.566;2.654;2023-05-10T04:04:24;18.77;71.00
74661;SHT31;63191;39.566;2.654;2023-05-10T04:06:52;18.78;70.93
74661;SHT31;63191;39.566;2.654;2023-05-10T04:09:17;18.77;70.91
74661;SHT31;63191;39.566;2.654;2023-05-10T04:11:43;18.76;70.96
74661;SHT31;63191;39.566;2.654;2023-05-10T04:14:09;18.77;70.90
74661;SHT31;63191;39.566;2.654;2023-05-10T04:16:35;18.78;70.91
74661;SHT31;63191;39.566;2.654;2023-05-10T04:19:00;18.81;70.97
74661;SHT31;63191;39.566;2.654;2023-05-10T04:21:26;18.81;71.00
74661;SHT31;63191;39.566;2.654;2023-05-10T04:23:52;18.81;71.00
74661;SHT31;63191;39.566;2.654;2023-05-10T04:26:17;18.82;71.01
74661;SHT31;63191;39.566;2.654;2023-05-10T04:28:45;18.81;70.97
74661;SHT31;63191;39.566;2.654;2023-05-10T04:31:10;18.79;70.89
74661;SHT31;63191;39.566;2.654;2023-05-10T04:33:36;18.75;70.82
74661;SHT31;63191;39.566;2.654;2023-05-10T04:36:02;18.73;70.80
74661;SHT31;63191;39.566;2.654;2023-05-10T04:38:28;18.72;70.83
74661;SHT31;63191;39.566;2.654;2023-05-10T04:41:03;18.71;70.85
74661;SHT31;63191;39.566;2.654;2023-05-10T04:43:30;18.72;70.88
74661;SHT31;63191;39.566;2.654;2023-05-10T04:45:56;18.76;70.82
74661;SHT31;63191;39.566;2.654;2023-05-10T04:48:22;18.80;70.79
74661;SHT31;63191;39.566;2.654;2023-05-10T04:50:47;18.83;70.77
74661;SHT31;63191;39.566;2.654;2023-05-10T04:53:13;18.86;70.67
74661;SHT31;63191;39.566;2.654;2023-05-10T04:55:39;18.90;70.60
74661;SHT31;63191;39.566;2.654;2023-05-10T04:58:04;18.94;70.64
74661;SHT31;63191;39.566;2.654;2023-05-10T05:00:30;18.98;70.57
74661;SHT31;63191;39.566;2.654;2023-05-10T05:08:33;19.14;70.02
74661;SHT31;63191;39.566;2.654;2023-05-10T05:13:47;19.24;69.90
74661;SHT31;63191;39.566;2.654;2023-05-10T05:16:12;19.31;69.83
74661;SHT31;63191;39.566;2.654;2023-05-10T05:21:17;19.45;69.57
74661;SHT31;63191;39.566;2.654;2023-05-10T05:23:44;19.53;69.46
74661;SHT31;63191;39.566;2.654;2023-05-10T05:26:09;19.61;69.30
74661;SHT31;63191;39.566;2.654;2023-05-10T05:28:35;19.71;69.06
74661;SHT31;63191;39.566;2.654;2023-05-10T05:31:04;19.86;68.80
74661;SHT31;63191;39.566;2.654;2023-05-10T05:33:32;20.24;68.40
74661;SHT31;63191;39.566;2.654;2023-05-10T05:36:01;20.89;67.66
74661;SHT31;63191;39.566;2.654;2023-05-10T05:38:28;21.32;66.77
74661;SHT31;63191;39.566;2.654;2023-05-10T05:40:53;21.68;66.02
74661;SHT31;63191;39.566;2.654;2023-05-10T05:43:20;22.42;64.76
74661;SHT31;63191;39.566;2.654;2023-05-10T05:45:45;23.23;63.21
74661;SHT31;63191;39.566;2.654;2023-05-10T05:48:11;23.82;61.85
74661;SHT31;63191;39.566;2.654;2023-05-10T05:50:37;24.26;60.63
74661;SHT31;63191;39.566;2.654;2023-05-10T05:53:05;24.77;59.34
74661;SHT31;63191;39.566;2.654;2023-05-10T05:58:20;25.42;56.38
74661;SHT31;63191;39.566;2.654;2023-05-10T06:00:47;25.92;55.41
74661;SHT31;63191;39.566;2.654;2023-05-10T06:03:13;26.39;54.42
74661;SHT31;63191;39.566;2.654;2023-05-10T06:05:39;26.76;53.53
74661;SHT31;63191;39.566;2.654;2023-05-10T06:10:36;28.18;51.22
74661;SHT31;63191;39.566;2.654;2023-05-10T06:13:04;29.10;50.00
74661;SHT31;63191;39.566;2.654;2023-05-10T06:15:29;29.89;48.62
74661;SHT31;63191;39.566;2.654;2023-05-10T06:17:55;29.74;47.57
74661;SHT31;63191;39.566;2.654;2023-05-10T06:26:10;30.50;45.34
74661;SHT31;63191;39.566;2.654;2023-05-10T06:28:53;30.81;44.59
74661;SHT31;63191;39.566;2.654;2023-05-10T06:31:22;30.81;43.67
74661;SHT31;63191;39.566;2.654;2023-05-10T06:39:13;29.04;44.06
74661;SHT31;63191;39.566;2.654;2023-05-10T06:41:42;28.53;44.57
74661;SHT31;63191;39.566;2.654;2023-05-10T06:44:11;28.12;45.10
74661;SHT31;63191;39.566;2.654;2023-05-10T06:46:38;27.73;45.45
74661;SHT31;63191;39.566;2.654;2023-05-10T06:49:03;27.34;45.77
74661;SHT31;63191;39.566;2.654;2023-05-10T06:51:29;26.99;46.23
74661;SHT31;63191;39.566;2.654;2023-05-10T06:53:55;26.66;46.78
74661;SHT31;63191;39.566;2.654;2023-05-10T06:56:21;26.29;47.36
74661;SHT31;63191;39.566;2.654;2023-05-10T06:58:48;26.04;48.13
74661;SHT31;63191;39.566;2.654;2023-05-10T07:01:14;25.78;48.43
74661;SHT31;63191;39.566;2.654;2023-05-10T07:03:39;25.56;49.02
74661;SHT31;63191;39.566;2.654;2023-05-10T07:06:05;25.42;49.56
74661;SHT31;63191;39.566;2.654;2023-05-10T07:08:32;25.23;49.67
74661;SHT31;63191;39.566;2.654;2023-05-10T07:14:21;25.10;50.50
74661;SHT31;63191;39.566;2.654;2023-05-10T07:16:53;25.04;50.51
74661;SHT31;63191;39.566;2.654;2023-05-10T07:19:33;25.09;50.65
74661;SHT31;63191;39.566;2.654;2023-05-10T07:22:00;25.09;50.82
74661;SHT31;63191;39.566;2.654;2023-05-10T07:24:26;25.01;50.88
74661;SHT31;63191;39.566;2.654;2023-05-10T07:30:09;25.05;51.42
74661;SHT31;63191;39.566;2.654;2023-05-10T07:32:45;25.44;50.88
74661;SHT31;63191;39.566;2.654;2023-05-10T07:35:26;25.59;50.36
74661;SHT31;63191;39.566;2.654;2023-05-10T07:37:52;25.78;50.53
74661;SHT31;63191;39.566;2.654;2023-05-10T07:40:17;25.97;50.57
74661;SHT31;63191;39.566;2.654;2023-05-10T07:42:43;26.10;50.42
74661;SHT31;63191;39.566;2.654;2023-05-10T07:45:09;26.22;50.08
74661;SHT31;63191;39.566;2.654;2023-05-10T07:47:35;26.24;49.38
74661;SHT31;63191;39.566;2.654;2023-05-10T07:58:27;26.43;48.96
74661;SHT31;63191;39.566;2.654;2023-05-10T08:00:53;26.51;48.95
74661;SHT31;63191;39.566;2.654;2023-05-10T08:03:30;26.61;48.68
74661;SHT31;63191;39.566;2.654;2023-05-10T08:11:30;26.45;48.49
74661;SHT31;63191;39.566;2.654;2023-05-10T08:13:56;26.55;48.58
74661;SHT31;63191;39.566;2.654;2023-05-10T08:16:21;26.56;48.69
74661;SHT31;63191;39.566;2.654;2023-05-10T08:18:48;26.64;49.01
74661;SHT31;63191;39.566;2.654;2023-05-10T08:21:15;26.75;48.87
74661;SHT31;63191;39.566;2.654;2023-05-10T08:23:43;27.10;48.99
74661;SHT31;63191;39.566;2.654;2023-05-10T08:26:09;27.85;48.15
74661;SHT31;63191;39.566;2.654;2023-05-10T08:28:35;28.07;49.07
74661;SHT31;63191;39.566;2.654;2023-05-10T08:31:05;27.64;48.43
74661;SHT31;63191;39.566;2.654;2023-05-10T08:33:37;27.24;48.95
74661;SHT31;63191;39.566;2.654;2023-05-10T08:36:11;27.14;49.06
74661;SHT31;63191;39.566;2.654;2023-05-10T08:38:39;27.15;48.74
74661;SHT31;63191;39.566;2.654;2023-05-10T08:49:17;26.68;48.54
74661;SHT31;63191;39.566;2.654;2023-05-10T08:57:39;27.20;47.30
74661;SHT31;63191;39.566;2.654;2023-05-10T09:00:07;27.30;46.90
74661;SHT31;63191;39.566;2.654;2023-05-10T09:02:37;27.01;46.95
74661;SHT31;63191;39.566;2.654;2023-05-10T09:07:52;26.59;48.45
74661;SHT31;63191;39.566;2.654;2023-05-10T09:10:21;26.23;49.10
74661;SHT31;63191;39.566;2.654;2023-05-10T09:12:55;25.90;49.48
74661;SHT31;63191;39.566;2.654;2023-05-10T10:03:03;24.94;52.06
74661;SHT31;63191;39.566;2.654;2023-05-10T10:09:16;24.82;51.99
74661;SHT31;63191;39.566;2.654;2023-05-10T10:15:51;25.17;51.13
74661;SHT31;63191;39.566;2.654;2023-05-10T10:18:18;25.28;51.26
74661;SHT31;63191;39.566;2.654;2023-05-10T10:20:48;25.45;51.20
74661;SHT31;63191;39.566;2.654;2023-05-10T10:23:14;25.59;50.65
74661;SHT31;63191;39.566;2.654;2023-05-10T10:25:40;25.62;50.47
74661;SHT31;63191;39.566;2.654;2023-05-10T10:28:11;25.60;50.12
74661;SHT31;63191;39.566;2.654;2023-05-10T10:30:47;25.48;49.83
74661;SHT31;63191;39.566;2.654;2023-05-10T10:36:05;25.00;50.17
74661;SHT31;63191;39.566;2.654;2023-05-10T10:49:52;23.95;52.72
74661;SHT31;63191;39.566;2.654;2023-05-10T10:52:35;24.06;52.73
74661;SHT31;63191;39.566;2.654;2023-05-10T10:55:13;24.36;52.03
74661;SHT31;63191;39.566;2.654;2023-05-10T10:57:47;24.42;51.80
74661;SHT31;63191;39.566;2.654;2023-05-10T11:05:47;24.69;51.34
74661;SHT31;63191;39.566;2.654;2023-05-10T11:10:50;24.50;51.81
74661;SHT31;63191;39.566;2.654;2023-05-10T11:16:10;24.29;52.67
74661;SHT31;63191;39.566;2.654;2023-05-10T11:19:06;24.31;52.93
74661;SHT31;63191;39.566;2.654;2023-05-10T11:24:00;24.24;52.84
74661;SHT31;63191;39.566;2.654;2023-05-10T11:26:32;24.20;53.33
74661;SHT31;63191;39.566;2.654;2023-05-10T11:29:00;24.24;53.25
74661;SHT31;63191;39.566;2.654;2023-05-10T11:31:28;24.30;53.16
74661;SHT31;63191;39.566;2.654;2023-05-10T11:33:55;24.34;52.93
74661;SHT31;63191;39.566;2.654;2023-05-10T11:36:26;24.42;52.76
74661;SHT31;63191;39.566;2.654;2023-05-10T11:38:54;24.54;52.76
74661;SHT31;63191;39.566;2.654;2023-05-10T11:41:22;24.70;52.35
74661;SHT31;63191;39.566;2.654;2023-05-10T11:43:50;24.79;51.97
74661;SHT31;63191;39.566;2.654;2023-05-10T11:46:27;24.88;51.76
74661;SHT31;63191;39.566;2.654;2023-05-10T11:48:56;24.87;51.79
74661;SHT31;63191;39.566;2.654;2023-05-10T12:10:42;25.20;52.12
74661;SHT31;63191;39.566;2.654;2023-05-10T12:18:31;26.07;49.89
74661;SHT31;63191;39.566;2.654;2023-05-10T12:26:12;26.56;49.66
74661;SHT31;63191;39.566;2.654;2023-05-10T12:28:38;26.78;48.62
74661;SHT31;63191;39.566;2.654;2023-05-10T12:31:07;27.15;45.38
74661;SHT31;63191;39.566;2.654;2023-05-10T12:33:37;27.38;43.67
74661;SHT31;63191;39.566;2.654;2023-05-10T12:36:12;27.32;45.01
74661;SHT31;63191;39.566;2.654;2023-05-10T12:38:40;27.06;46.27
74661;SHT31;63191;39.566;2.654;2023-05-10T12:41:14;26.78;47.10
74661;SHT31;63191;39.566;2.654;2023-05-10T12:43:42;26.54;47.46
74661;SHT31;63191;39.566;2.654;2023-05-10T12:46:09;26.32;47.40
74661;SHT31;63191;39.566;2.654;2023-05-10T12:48:37;26.24;47.49
74661;SHT31;63191;39.566;2.654;2023-05-10T12:51:06;26.23;47.50
74661;SHT31;63191;39.566;2.654;2023-05-10T12:53:34;26.07;48.67
74661;SHT31;63191;39.566;2.654;2023-05-10T12:56:01;25.90;49.06
74661;SHT31;63191;39.566;2.654;2023-05-10T12:58:27;25.83;49.30
74661;SHT31;63191;39.566;2.654;2023-05-10T13:00:52;25.97;49.91
74661;SHT31;63191;39.566;2.654;2023-05-10T13:03:22;26.17;49.99
74661;SHT31;63191;39.566;2.654;2023-05-10T13:05:48;26.22;49.18
74661;SHT31;63191;39.566;2.654;2023-05-10T13:08:13;26.29;49.54
74661;SHT31;63191;39.566;2.654;2023-05-10T13:10:57;26.36;49.12
74661;SHT31;63191;39.566;2.654;2023-05-10T13:13:26;26.34;49.41
74661;SHT31;63191;39.566;2.654;2023-05-10T13:15:54;26.56;49.65
74661;SHT31;63191;39.566;2.654;2023-05-10T13:18:20;26.78;49.12
74661;SHT31;63191;39.566;2.654;2023-05-10T13:20:46;27.02;48.18
74661;SHT31;63191;39.566;2.654;2023-05-10T13:23:11;27.10;48.14
74661;SHT31;63191;39.566;2.654;2023-05-10T13:25:37;27.27;48.60
74661;SHT31;63191;39.566;2.654;2023-05-10T13:28:03;27.58;47.95
74661;SHT31;63191;39.566;2.654;2023-05-10T13:30:29;27.84;47.92
74661;SHT31;63191;39.566;2.654;2023-05-10T13:32:54;28.03;47.56
74661;SHT31;63191;39.566;2.654;2023-05-10T13:35:20;28.35;47.35
74661;SHT31;63191;39.566;2.654;2023-05-10T13:37:46;29.73;44.81
74661;SHT31;63191;39.566;2.654;2023-05-10T13:40:12;30.54;41.47
74661;SHT31;63191;39.566;2.654;2023-05-10T13:42:38;30.50;40.98
74661;SHT31;63191;39.566;2.654;2023-05-10T13:45:12;30.21;40.58
74661;SHT31;63191;39.566;2.654;2023-05-10T13:47:41;29.82;41.85
74661;SHT31;63191;39.566;2.654;2023-05-10T13:52:41;29.03;42.43
74661;SHT31;63191;39.566;2.654;2023-05-10T13:55:09;28.83;43.12
74661;SHT31;63191;39.566;2.654;2023-05-10T13:57:37;28.69;43.45
74661;SHT31;63191;39.566;2.654;2023-05-10T14:00:09;28.63;43.19
74661;SHT31;63191;39.566;2.654;2023-05-10T14:02:35;28.66;43.25
74661;SHT31;63191;39.566;2.654;2023-05-10T14:05:01;29.29;43.19
74661;SHT31;63191;39.566;2.654;2023-05-10T14:07:28;29.97;41.90
74661;SHT31;63191;39.566;2.654;2023-05-10T14:09:55;30.21;42.24
74661;SHT31;63191;39.566;2.654;2023-05-10T14:12:24;30.42;41.91
74661;SHT31;63191;39.566;2.654;2023-05-10T14:14:50;30.25;42.32
74661;SHT31;63191;39.566;2.654;2023-05-10T14:17:15;30.02;42.61
74661;SHT31;63191;39.566;2.654;2023-05-10T14:19:41;29.73;41.77
74661;SHT31;63191;39.566;2.654;2023-05-10T14:22:07;29.15;42.07
74661;SHT31;63191;39.566;2.654;2023-05-10T14:24:35;28.55;42.47
74661;SHT31;63191;39.566;2.654;2023-05-10T14:27:01;27.85;44.89
74661;SHT31;63191;39.566;2.654;2023-05-10T14:29:28;27.32;46.34
74661;SHT31;63191;39.566;2.654;2023-05-10T14:31:54;26.83;46.84
74661;SHT31;63191;39.566;2.654;2023-05-10T14:34:22;26.34;47.94
74661;SHT31;63191;39.566;2.654;2023-05-10T14:36:48;26.16;47.59
74661;SHT31;63191;39.566;2.654;2023-05-10T14:39:15;25.94;47.54
74661;SHT31;63191;39.566;2.654;2023-05-10T14:41:41;25.64;48.05
74661;SHT31;63191;39.566;2.654;2023-05-10T14:44:08;25.30;48.85
74661;SHT31;63191;39.566;2.654;2023-05-10T14:46:34;25.10;49.77
74661;SHT31;63191;39.566;2.654;2023-05-10T14:49:00;24.84;51.58
74661;SHT31;63191;39.566;2.654;2023-05-10T14:51:29;24.57;52.30
74661;SHT31;63191;39.566;2.654;2023-05-10T14:53:55;24.37;52.66
74661;SHT31;63191;39.566;2.654;2023-05-10T14:56:22;24.20;52.46
74661;SHT31;63191;39.566;2.654;2023-05-10T14:58:57;23.93;52.80
74661;SHT31;63191;39.566;2.654;2023-05-10T15:01:22;23.79;52.31
74661;SHT31;63191;39.566;2.654;2023-05-10T15:03:48;23.82;53.61
74661;SHT31;63191;39.566;2.654;2023-05-10T15:06:14;23.73;54.85
74661;SHT31;63191;39.566;2.654;2023-05-10T15:08:42;23.55;55.18
74661;SHT31;63191;39.566;2.654;2023-05-10T15:11:08;23.40;56.26
74661;SHT31;63191;39.566;2.654;2023-05-10T15:13:35;23.38;56.83
74661;SHT31;63191;39.566;2.654;2023-05-10T15:21:34;23.53;56.78
74661;SHT31;63191;39.566;2.654;2023-05-10T15:24:07;23.53;56.88
74661;SHT31;63191;39.566;2.654;2023-05-10T15:26:36;23.48;57.05
74661;SHT31;63191;39.566;2.654;2023-05-10T15:29:07;23.38;57.33
74661;SHT31;63191;39.566;2.654;2023-05-10T15:31:34;23.24;57.11
74661;SHT31;63191;39.566;2.654;2023-05-10T15:34:01;23.10;57.29
74661;SHT31;63191;39.566;2.654;2023-05-10T15:50:31;22.22;62.06
74661;SHT31;63191;39.566;2.654;2023-05-10T15:52:56;22.23;61.74
74661;SHT31;63191;39.566;2.654;2023-05-10T15:55:27;22.20;62.10
74661;SHT31;63191;39.566;2.654;2023-05-10T15:57:52;22.18;62.67
74661;SHT31;63191;39.566;2.654;2023-05-10T16:00:18;22.18;62.63
74661;SHT31;63191;39.566;2.654;2023-05-10T16:02:59;22.14;62.71
74661;SHT31;63191;39.566;2.654;2023-05-10T16:05:37;22.07;62.11
74661;SHT31;63191;39.566;2.654;2023-05-10T16:08:03;21.99;62.29
74661;SHT31;63191;39.566;2.654;2023-05-10T16:10:34;21.96;62.00
74661;SHT31;63191;39.566;2.654;2023-05-10T16:13:00;21.92;62.09
74661;SHT31;63191;39.566;2.654;2023-05-10T16:15:27;21.94;62.61
74661;SHT31;63191;39.566;2.654;2023-05-10T16:17:54;21.89;62.86
74661;SHT31;63191;39.566;2.654;2023-05-10T16:20:20;21.87;62.90
74661;SHT31;63191;39.566;2.654;2023-05-10T16:23:05;21.87;62.46
74661;SHT31;63191;39.566;2.654;2023-05-10T16:26:00;21.87;61.28
74661;SHT31;63191;39.566;2.654;2023-05-10T16:28:28;21.76;61.29
74661;SHT31;63191;39.566;2.654;2023-05-10T16:33:49;21.53;62.07
74661;SHT31;63191;39.566;2.654;2023-05-10T16:36:21;21.46;62.47
74661;SHT31;63191;39.566;2.654;2023-05-10T16:38:50;21.38;63.66
74661;SHT31;63191;39.566;2.654;2023-05-10T16:41:18;21.32;63.84
74661;SHT31;63191;39.566;2.654;2023-05-10T16:43:45;21.27;64.23
74661;SHT31;63191;39.566;2.654;2023-05-10T16:46:11;21.22;64.44
74661;SHT31;63191;39.566;2.654;2023-05-10T16:48:41;21.21;64.23
74661;SHT31;63191;39.566;2.654;2023-05-10T16:51:07;21.22;63.96
74661;SHT31;63191;39.566;2.654;2023-05-10T16:59:06;21.23;64.54
74661;SHT31;63191;39.566;2.654;2023-05-10T17:01:48;21.15;64.95
74661;SHT31;63191;39.566;2.654;2023-05-10T17:04:15;21.12;65.21
74661;SHT31;63191;39.566;2.654;2023-05-10T17:06:41;21.13;65.78
74661;SHT31;63191;39.566;2.654;2023-05-10T17:09:15;21.15;66.19
74661;SHT31;63191;39.566;2.654;2023-05-10T17:11:46;21.12;66.56
74661;SHT31;63191;39.566;2.654;2023-05-10T17:14:14;21.05;66.87
74661;SHT31;63191;39.566;2.654;2023-05-10T17:19:05;21.00;67.08
74661;SHT31;63191;39.566;2.654;2023-05-10T17:21:52;20.98;66.91
74661;SHT31;63191;39.566;2.654;2023-05-10T17:29:54;20.85;67.41
74661;SHT31;63191;39.566;2.654;2023-05-10T17:32:21;20.83;67.85
74661;SHT31;63191;39.566;2.654;2023-05-10T17:34:47;20.81;67.93
74661;SHT31;63191;39.566;2.654;2023-05-10T17:37:17;20.76;67.87
74661;SHT31;63191;39.566;2.654;2023-05-10T17:39:43;20.71;68.04
74661;SHT31;63191;39.566;2.654;2023-05-10T17:42:09;20.63;67.62
74661;SHT31;63191;39.566;2.654;2023-05-10T17:50:09;20.44;68.45
74661;SHT31;63191;39.566;2.654;2023-05-10T17:52:35;20.39;68.31
74661;SHT31;63191;39.566;2.654;2023-05-10T17:55:06;20.34;68.47
74661;SHT31;63191;39.566;2.654;2023-05-10T17:57:32;20.29;68.61
74661;SHT31;63191;39.566;2.654;2023-05-10T18:00:05;20.23;68.26
74661;SHT31;63191;39.566;2.654;2023-05-10T18:02:36;20.21;68.05
74661;SHT31;63191;39.566;2.654;2023-05-10T18:05:03;20.19;68.24
74661;SHT31;63191;39.566;2.654;2023-05-10T18:07:29;20.19;68.84
74661;SHT31;63191;39.566;2.654;2023-05-10T18:10:20;20.19;69.32
74661;SHT31;63191;39.566;2.654;2023-05-10T18:12:47;20.18;69.74
74661;SHT31;63191;39.566;2.654;2023-05-10T18:15:14;20.16;69.94
74661;SHT31;63191;39.566;2.654;2023-05-10T18:18:02;20.16;70.15
74661;SHT31;63191;39.566;2.654;2023-05-10T18:20:31;20.15;70.34
74661;SHT31;63191;39.566;2.654;2023-05-10T18:22:56;20.14;70.36
74661;SHT31;63191;39.566;2.654;2023-05-10T18:25:23;20.13;70.41
74661;SHT31;63191;39.566;2.654;2023-05-10T18:27:49;20.11;70.43
74661;SHT31;63191;39.566;2.654;2023-05-10T18:30:21;20.09;70.37
74661;SHT31;63191;39.566;2.654;2023-05-10T18:32:50;20.03;70.14
74661;SHT31;63191;39.566;2.654;2023-05-10T18:35:18;19.97;70.10
74661;SHT31;63191;39.566;2.654;2023-05-10T18:37:53;19.92;70.37
74661;SHT31;63191;39.566;2.654;2023-05-10T18:40:38;19.88;70.68
74661;SHT31;63191;39.566;2.654;2023-05-10T18:43:24;19.84;70.66
74661;SHT31;63191;39.566;2.654;2023-05-10T18:45:50;19.79;71.07
74661;SHT31;63191;39.566;2.654;2023-05-10T18:48:16;19.74;71.17
74661;SHT31;63191;39.566;2.654;2023-05-10T18:50:42;19.69;71.27
74661;SHT31;63191;39.566;2.654;2023-05-10T18:55:42;19.63;71.72
74661;SHT31;63191;39.566;2.654;2023-05-10T18:58:09;19.62;71.94
74661;SHT31;63191;39.566;2.654;2023-05-10T19:00:34;19.59;71.89
74661;SHT31;63191;39.566;2.654;2023-05-10T19:03:00;19.56;72.13
74661;SHT31;63191;39.566;2.654;2023-05-10T19:05:26;19.54;72.12
74661;SHT31;63191;39.566;2.654;2023-05-10T19:07:55;19.53;71.99
74661;SHT31;63191;39.566;2.654;2023-05-10T19:10:21;19.52;71.88
74661;SHT31;63191;39.566;2.654;2023-05-10T19:12:47;19.51;71.79
74661;SHT31;63191;39.566;2.654;2023-05-10T19:15:13;19.52;71.88
74661;SHT31;63191;39.566;2.654;2023-05-10T19:17:38;19.55;72.06
74661;SHT31;63191;39.566;2.654;2023-05-10T19:20:05;19.57;71.97
74661;SHT31;63191;39.566;2.654;2023-05-10T19:22:31;19.59;71.70
74661;SHT31;63191;39.566;2.654;2023-05-10T19:25:06;19.58;71.59
74661;SHT31;63191;39.566;2.654;2023-05-10T19:27:33;19.60;71.61
74661;SHT31;63191;39.566;2.654;2023-05-10T19:30:01;19.61;71.68
74661;SHT31;63191;39.566;2.654;2023-05-10T19:32:27;19.61;71.49
74661;SHT31;63191;39.566;2.654;2023-05-10T19:34:58;19.60;71.17
74661;SHT31;63191;39.566;2.654;2023-05-10T19:37:53;19.59;71.01
74661;SHT31;63191;39.566;2.654;2023-05-10T19:40:25;19.58;71.00